sensor_id;sensor_type;location;lat;lon;timestamp;temperature;humidity
45313;SHT31;68267;51.540;5.854;2023-09-30T00:08:22;12.4;90.3
45313;SHT31;68267;51.540;5.854;2023-09-30T00:21:42;12.4;90.7
45313;SHT31;68267;51.540;5.854;2023-09-30T00:35:02;12.5;90.8
45313;SHT31;68267;51.540;5.854;2023-09-30T00:48:21;12.5;90.6
45313;SHT31;68267;51.540;5.854;2023-09-30T01:01:41;12.6;90.5
45313;SHT31;68267;51.540;5.854;2023-09-30T01:15:01;12.6;90.4
45313;SHT31;68267;51.540;5.854;2023-09-30T01:28:21;12.5;90.3
45313;SHT31;68267;51.540;5.854;2023-09-30T01:41:40;12.5;90.7
45313;SHT31;68267;51.540;5.854;2023-09-30T01:55:02;12.4;90.5
45313;SHT31;68267;51.540;5.854;2023-09-30T02:08:22;12.3;90.4
45313;SHT31;68267;51.540;5.854;2023-09-30T02:21:42;12.2;90.6
45313;SHT31;68267;51.540;5.854;2023-09-30T02:35:02;12.2;90.9
45313;SHT31;68267;51.540;5.854;2023-09-30T02:48:21;12.2;90.8
45313;SHT31;68267;51.540;5.854;2023-09-30T03:01:41;12.0;90.9
45313;SHT31;68267;51.540;5.854;2023-09-30T03:15:01;12.0;91.2
45313;SHT31;68267;51.540;5.854;2023-09-30T03:28:20;11.9;91.3
45313;SHT31;68267;51.540;5.854;2023-09-30T03:41:40;11.7;91.4
45313;SHT31;68267;51.540;5.854;2023-09-30T03:55:00;11.7;91.2
45313;SHT31;68267;51.540;5.854;2023-09-30T04:08:20;11.6;91.1
45313;SHT31;68267;51.540;5.854;2023-09-30T04:21:39;11.5;91.2
45313;SHT31;68267;51.540;5.854;2023-09-30T04:34:59;11.5;91.4
45313;SHT31;68267;51.540;5.854;2023-09-30T04:48:19;11.6;91.3
45313;SHT31;68267;51.540;5.854;2023-09-30T05:01:38;11.5;91.0
45313;SHT31;68267;51.540;5.854;2023-09-30T05:14:58;11.4;91.2
45313;SHT31;68267;51.540;5.854;2023-09-30T05:28:18;11.4;91.4
45313;SHT31;68267;51.540;5.854;2023-09-30T05:41:38;11.3;91.5
45313;SHT31;68267;51.540;5.854;2023-09-30T05:54:57;11.3;91.5
45313;SHT31;68267;51.540;5.854;2023-09-30T06:08:17;11.4;91.7
45313;SHT31;68267;51.540;5.854;2023-09-30T06:21:37;11.5;92.0
45313;SHT31;68267;51.540;5.854;2023-09-30T06:48:16;12.3;92.0
45313;SHT31;68267;51.540;5.854;2023-09-30T07:01:38;12.8;91.7
45313;SHT31;68267;51.540;5.854;2023-09-30T07:14:58;13.5;91.2
45313;SHT31;68267;51.540;5.854;2023-09-30T07:28:18;14.2;90.5
45313;SHT31;68267;51.540;5.854;2023-09-30T07:41:37;14.9;88.9
45313;SHT31;68267;51.540;5.854;2023-09-30T07:54:57;15.5;87.3
45313;SHT31;68267;51.540;5.854;2023-09-30T08:08:17;16.0;85.6
45313;SHT31;68267;51.540;5.854;2023-09-30T08:21:37;16.6;84.7
45313;SHT31;68267;51.540;5.854;2023-09-30T08:34:56;17.0;82.4
45313;SHT31;68267;51.540;5.854;2023-09-30T08:48:16;17.3;81.5
45313;SHT31;68267;51.540;5.854;2023-09-30T09:01:38;17.4;80.4
45313;SHT31;68267;51.540;5.854;2023-09-30T09:14:58;17.8;79.4
45313;SHT31;68267;51.540;5.854;2023-09-30T09:28:18;17.9;77.1
45313;SHT31;68267;51.540;5.854;2023-09-30T09:41:37;18.6;75.5
45313;SHT31;68267;51.540;5.854;2023-09-30T09:54:57;18.8;73.4
45313;SHT31;68267;51.540;5.854;2023-09-30T10:08:17;18.5;73.6
45313;SHT31;68267;51.540;5.854;2023-09-30T10:21:37;19.1;70.2
45313;SHT31;68267;51.540;5.854;2023-09-30T10:34:56;19.0;72.4
45313;SHT31;68267;51.540;5.854;2023-09-30T10:48:16;18.4;70.5
45313;SHT31;68267;51.540;5.854;2023-09-30T11:01:36;19.8;68.3
45313;SHT31;68267;51.540;5.854;2023-09-30T11:14:55;20.0;65.4
45313;SHT31;68267;51.540;5.854;2023-09-30T11:28:15;20.0;67.6
45313;SHT31;68267;51.540;5.854;2023-09-30T11:41:35;20.7;61.0
45313;SHT31;68267;51.540;5.854;2023-09-30T11:54:54;21.1;61.1
45313;SHT31;68267;51.540;5.854;2023-09-30T12:08:14;20.4;56.4
45313;SHT31;68267;51.540;5.854;2023-09-30T12:21:34;20.9;59.2
45313;SHT31;68267;51.540;5.854;2023-09-30T12:34:54;19.8;61.6
45313;SHT31;68267;51.540;5.854;2023-09-30T12:48:13;20.5;58.8
45313;SHT31;68267;51.540;5.854;2023-09-30T13:01:33;20.2;61.4
45313;SHT31;68267;51.540;5.854;2023-09-30T13:14:53;20.5;58.8
45313;SHT31;68267;51.540;5.854;2023-09-30T13:28:12;20.6;57.5
45313;SHT31;68267;51.540;5.854;2023-09-30T13:41:32;20.2;57.9
45313;SHT31;68267;51.540;5.854;2023-09-30T13:54:52;19.6;61.9
45313;SHT31;68267;51.540;5.854;2023-09-30T14:08:12;20.1;61.1
45313;SHT31;68267;51.540;5.854;2023-09-30T14:21:31;20.2;59.5
45313;SHT31;68267;51.540;5.854;2023-09-30T14:34:51;20.0;60.8
45313;SHT31;68267;51.540;5.854;2023-09-30T14:48:11;20.1;61.2
45313;SHT31;68267;51.540;5.854;2023-09-30T15:01:30;19.6;60.4
45313;SHT31;68267;51.540;5.854;2023-09-30T15:14:50;19.5;62.5
45313;SHT31;68267;51.540;5.854;2023-09-30T15:28:10;19.6;63.0
45313;SHT31;68267;51.540;5.854;2023-09-30T15:41:30;19.6;62.7
45313;SHT31;68267;51.540;5.854;2023-09-30T15:54:49;19.1;64.0
45313;SHT31;68267;51.540;5.854;2023-09-30T16:08:09;19.1;64.8
45313;SHT31;68267;51.540;5.854;2023-09-30T16:21:29;19.1;65.4
45313;SHT31;68267;51.540;5.854;2023-09-30T16:34:51;18.8;66.2
45313;SHT31;68267;51.540;5.854;2023-09-30T16:48:11;18.1;68.5
45313;SHT31;68267;51.540;5.854;2023-09-30T17:01:30;17.5;70.8
45313;SHT31;68267;51.540;5.854;2023-09-30T17:14:50;17.1;73.0
45313;SHT31;68267;51.540;5.854;2023-09-30T17:28:10;16.4;75.6
45313;SHT31;68267;51.540;5.854;2023-09-30T17:41:29;16.1;76.4
45313;SHT31;68267;51.540;5.854;2023-09-30T17:54:49;15.6;78.1
45313;SHT31;68267;51.540;5.854;2023-09-30T18:08:09;15.3;79.2
45313;SHT31;68267;51.540;5.854;2023-09-30T18:21:29;15.1;80.2
45313;SHT31;68267;51.540;5.854;2023-09-30T18:34:48;15.0;80.7
45313;SHT31;68267;51.540;5.854;2023-09-30T18:48:08;15.2;80.7
45313;SHT31;68267;51.540;5.854;2023-09-30T19:01:28;15.3;80.6
45313;SHT31;68267;51.540;5.854;2023-09-30T19:14:47;15.4;80.2
45313;SHT31;68267;51.540;5.854;2023-09-30T19:28:07;15.3;80.6
45313;SHT31;68267;51.540;5.854;2023-09-30T19:41:27;15.3;80.6
45313;SHT31;68267;51.540;5.854;2023-09-30T19:54:47;15.4;80.3
45313;SHT31;68267;51.540;5.854;2023-09-30T20:08:09;15.2;80.5
45313;SHT31;68267;51.540;5.854;2023-09-30T20:21:29;14.7;81.4
45313;SHT31;68267;51.540;5.854;2023-09-30T20:34:48;14.2;83.1
45313;SHT31;68267;51.540;5.854;2023-09-30T20:48:08;13.9;84.5
45313;SHT31;68267;51.540;5.854;2023-09-30T21:01:28;13.8;84.9
45313;SHT31;68267;51.540;5.854;2023-09-30T21:14:47;13.7;85.2
45313;SHT31;68267;51.540;5.854;2023-09-30T21:28:07;13.6;85.4
45313;SHT31;68267;51.540;5.854;2023-09-30T21:41:27;13.6;85.8
45313;SHT31;68267;51.540;5.854;2023-09-30T21:54:49;13.8;85.5
45313;SHT31;68267;51.540;5.854;2023-09-30T22:08:09;13.9;85.0
45313;SHT31;68267;51.540;5.854;2023-09-30T22:34:51;13.8;83.8
45313;SHT31;68267;51.540;5.854;2023-09-30T22:48:10;13.6;84.0
45313;SHT31;68267;51.540;5.854;2023-09-30T23:01:30;13.4;84.2
45313;SHT31;68267;51.540;5.854;2023-09-30T23:14:50;13.4;84.8
45313;SHT31;68267;51.540;5.854;2023-09-30T23:28:09;13.5;84.3
45313;SHT31;68267;51.540;5.854;2023-09-30T23:41:29;13.6;83.5
45313;SHT31;68267;51.540;5.854;2023-09-30T23:54:49;13.4;83.8
